| time (UTC) | temp C | wind direction | speed KPH | gust KPH | rain 1hr cm | rain 24hr cm | rain mn cm | humidity % | barometer mb |
| 20260906053101 | 17 | 8.0 | 6.4 | 0.00 | 0.00 | 0.00 | 77 | 1023.5 | |
| 20260906051611 | 16 | 109 | 4.8 | 11.3 | 0.00 | 0.00 | 0.00 | 77 | 1023.4 |
| 20260906050055 | 16 | 101 | 8.0 | 14.5 | 0.00 | 0.00 | 0.00 | 77 | 1023.5 |
| 20260906044608 | 16 | 129 | 4.8 | 11.3 | 0.00 | 0.00 | 0.00 | 79 | 1023.2 |
| 20260906043055 | 16 | 162 | 6.4 | 16.1 | 0.00 | 0.00 | 0.00 | 78 | 1023.1 |
| 20260906041554 | 16 | 155 | 11.3 | 16.1 | 0.00 | 0.00 | 0.00 | 78 | 1023.1 |
| 20260906040137 | 16 | 117 | 6.4 | 8.0 | 0.00 | 0.00 | 0.00 | 80 | 1023.0 |
| 20260906034605 | 16 | 162 | 4.8 | 6.4 | 0.00 | 0.00 | 0.00 | 78 | 1022.9 |
| 20260906033105 | 16 | 117 | 6.4 | 6.4 | 0.00 | 0.00 | 0.00 | 77 | 1022.9 |
| 20260906031553 | 17 | 127 | 4.8 | 14.5 | 0.00 | 0.00 | 0.00 | 76 | 1022.9 |
| 20260906024610 | 17 | 157 | 6.4 | 17.7 | 0.00 | 0.00 | 0.00 | 74 | 1022.7 |
| 20260906023103 | 17 | 8.0 | 14.5 | 0.00 | 0.00 | 0.00 | 76 | 1022.8 | |
| 20260906021606 | 17 | 3.2 | 4.8 | 0.00 | 0.00 | 0.00 | 75 | 1022.6 | |
| 20260906014557 | 17 | 6.4 | 12.9 | 0.00 | 0.00 | 0.00 | 76 | 1022.5 | |
| 20260906013048 | 16 | 3.2 | 9.7 | 0.00 | 0.00 | 0.00 | 78 | 1022.6 | |
| 20260906011558 | 16 | 67 | 3.2 | 9.7 | 0.00 | 0.00 | 0.00 | 79 | 1022.5 |
| 20260906010058 | 16 | 124 | 3.2 | 4.8 | 0.00 | 0.00 | 0.00 | 80 | 1022.3 |
| 20260906004607 | 16 | 90 | 4.8 | 17.7 | 0.00 | 0.00 | 0.00 | 80 | 1022.3 |
| 20260906003100 | 17 | 119 | 1.6 | 9.7 | 0.00 | 0.00 | 0.00 | 78 | 1022.4 |
| 20260906001607 | 16 | 4.8 | 11.3 | 0.00 | 0.00 | 0.00 | 81 | 1022.3 | |
| 20260906000056 | 16 | 187 | 3.2 | 11.3 | 0.00 | 0.00 | 0.00 | 81 | 1022.3 |
| 20260905234551 | 17 | 161 | 6.4 | 9.7 | 0.00 | 0.00 | 0.00 | 78 | 1022.2 |
| 20260905233101 | 17 | 8.0 | 11.3 | 0.00 | 0.00 | 0.00 | 80 | 1022.2 | |
| 20260905231557 | -17 | 0.0 | 0.0 | 0.00 | 0.00 | 0.00 | 1022.3 | ||
| 20260905230059 | -17 | 113 | 4.8 | 6.4 | 0.00 | 0.00 | 0.00 | 1022.3 | |
| 20260905224615 | -17 | 0.0 | 0.0 | 0.00 | 0.00 | 0.00 | 1022.1 | ||
| 20260905223105 | -17 | 0.0 | 0.0 | 0.00 | 0.00 | 0.00 | 1022.1 | ||
| 20260905221555 | -17 | 0.0 | 0.0 | 0.00 | 0.00 | 0.00 | 1022.0 | ||
| 20260905220057 | -17 | 0.0 | 0.0 | 0.00 | 0.00 | 0.00 | 1022.1 | ||
| 20260905214603 | -17 | 11.3 | 0.0 | 0.00 | 0.00 | 0.00 | 1022.0 | ||
| 20260905213102 | 18 | 157 | 6.4 | 9.7 | 0.00 | 0.00 | 0.00 | 78 | 1021.9 |
| 20260905211558 | 19 | 173 | 8.0 | 11.3 | 0.00 | 0.00 | 0.00 | 75 | 1021.8 |
| 20260905210101 | -17 | 6.4 | 6.4 | 0.00 | 0.00 | 0.00 | 1021.8 | ||
| 20260905204558 | -17 | 0.0 | 0.0 | 0.00 | 0.00 | 0.00 | 1021.5 | ||
| 20260905203059 | 18 | 167 | 6.4 | 9.7 | 0.00 | 0.00 | 0.00 | 80 | 1021.4 |
| 20260905201555 | 18 | 168 | 1.6 | 8.0 | 0.00 | 0.00 | 0.00 | 82 | 1021.5 |
| 20260905200105 | 18 | 153 | 4.8 | 11.3 | 0.00 | 0.00 | 0.00 | 81 | 1021.2 |
| 20260905194552 | 20 | 162 | 3.2 | 8.0 | 0.00 | 0.00 | 0.00 | 78 | 1021.1 |
| 20260905193100 | 20 | 102 | 3.2 | 8.0 | 0.00 | 0.00 | 0.00 | 78 | 1020.9 |
| 20260905191600 | 20 | 140 | 3.2 | 6.4 | 0.00 | 0.00 | 0.00 | 78 | 1020.9 |
| 20260905184607 | 20 | 190 | 3.2 | 4.8 | 0.00 | 0.00 | 0.00 | 77 | 1020.7 |
| 20260905183101 | 20 | 90 | 0.0 | 4.8 | 0.00 | 0.00 | 0.00 | 76 | 1020.4 |
| 20260905181608 | 21 | 105 | 1.6 | 9.7 | 0.00 | 0.00 | 0.00 | 75 | 1020.3 |
| 20260905180108 | 21 | 80 | 8.0 | 16.1 | 0.00 | 0.00 | 0.00 | 73 | 1020.1 |
| 20260905174606 | 22 | 99 | 8.0 | 12.9 | 0.00 | 0.00 | 0.00 | 71 | 1020.1 |
| 20260905173131 | 22 | 174 | 4.8 | 6.4 | 0.00 | 0.00 | 0.00 | 70 | 1019.8 |
| 20260905171549 | 22 | 227 | 1.6 | 11.3 | 0.00 | 0.00 | 0.00 | 69 | 1019.7 |
| 20260905170115 | 23 | 37 | 16.1 | 30.6 | 0.00 | 0.00 | 0.00 | 68 | 1019.4 |
| 20260905164605 | 24 | 44 | 19.3 | 35.4 | 0.00 | 0.00 | 0.00 | 65 | 1019.3 |
| 20260905163117 | 27 | 57 | 6.4 | 12.9 | 0.00 | 0.00 | 0.00 | 63 | 1019.1 |
| 20260905161609 | 28 | 303 | 8.0 | 12.9 | 0.00 | 0.00 | 0.00 | 55 | 1018.6 |
| 20260905160059 | -17 | 0.0 | 0.0 | 0.00 | 0.00 | 0.00 | 1018.2 | ||
| 20260905154611 | -17 | 0.0 | 0.0 | 0.00 | 0.00 | 0.00 | 1018.3 | ||
| 20260905153058 | 29 | 11.3 | 16.1 | 0.00 | 0.00 | 0.00 | 53 | 1018.1 | |
| 20260905151606 | -17 | 0.0 | 0.0 | 0.00 | 0.00 | 0.00 | 1018.1 | ||
| 20260905144602 | 28 | 6.4 | 6.4 | 0.00 | 0.00 | 0.00 | 58 | 1018.1 | |
| 20260905143100 | 28 | 263 | 8.0 | 17.7 | 0.00 | 0.00 | 0.00 | 59 | 1018.3 |
| 20260905141606 | 28 | 265 | 12.9 | 25.7 | 0.00 | 0.00 | 0.00 | 58 | 1018.3 |
| 20260905140104 | 28 | 299 | 11.3 | 17.7 | 0.00 | 0.00 | 0.00 | 54 | 1018.3 |
| 20260905134557 | 28 | 261 | 11.3 | 19.3 | 0.00 | 0.00 | 0.00 | 54 | 1018.2 |
| 20260905133106 | 28 | 277 | 14.5 | 19.3 | 0.00 | 0.00 | 0.00 | 55 | 1018.2 |
| 20260905131603 | 28 | 286 | 16.1 | 24.1 | 0.00 | 0.00 | 0.00 | 53 | 1018.3 |
| 20260905130056 | 28 | 261 | 14.5 | 20.9 | 0.00 | 0.00 | 0.00 | 53 | 1018.2 |
| 20260905124554 | 29 | 277 | 8.0 | 20.9 | 0.00 | 0.00 | 0.00 | 51 | 1018.4 |
| 20260905123110 | 29 | 11.3 | 16.1 | 0.00 | 0.00 | 0.00 | 46 | 1018.4 | |
| 20260905121558 | 29 | 184 | 14.5 | 24.1 | 0.00 | 0.00 | 0.00 | 45 | 1018.4 |
| 20260905120100 | 28 | 242 | 16.1 | 20.9 | 0.00 | 0.00 | 0.00 | 47 | 1018.4 |
| 20260905114559 | 28 | 155 | 6.4 | 14.5 | 0.00 | 0.00 | 0.00 | 50 | 1018.6 |
| 20260905113054 | 28 | 215 | 17.7 | 25.7 | 0.00 | 0.00 | 0.00 | 49 | 1018.7 |
| 20260905111555 | 28 | 284 | 4.8 | 11.3 | 0.00 | 0.00 | 0.00 | 50 | 1018.6 |
| 20260905110055 | 28 | 258 | 11.3 | 24.1 | 0.00 | 0.00 | 0.00 | 48 | 1018.6 |
| 20260905104552 | 28 | 105 | 8.0 | 14.5 | 0.00 | 0.00 | 0.00 | 45 | 1018.7 |
| 20260905103104 | 28 | 211 | 8.0 | 9.7 | 0.00 | 0.00 | 0.00 | 45 | 1018.7 |
| 20260905101602 | 28 | 301 | 1.6 | 6.4 | 0.00 | 0.00 | 0.00 | 45 | 1018.9 |
| 20260905100121 | 28 | 130 | 4.8 | 11.3 | 0.00 | 0.00 | 0.00 | 43 | 1018.8 |
| 20260905094553 | 28 | 317 | 3.2 | 6.4 | 0.00 | 0.00 | 0.00 | 44 | 1018.9 |
| 20260905093055 | 27 | 296 | 3.2 | 9.7 | 0.00 | 0.00 | 0.00 | 44 | 1019.0 |
| 20260905091601 | 27 | 300 | 1.6 | 4.8 | 0.00 | 0.00 | 0.00 | 43 | 1019.1 |
| 20260905090100 | 27 | 59 | 4.8 | 11.3 | 0.00 | 0.00 | 0.00 | 46 | 1018.8 |
| 20260905084559 | 26 | 75 | 11.3 | 16.1 | 0.00 | 0.00 | 0.00 | 46 | 1018.7 |
| 20260905083108 | 25 | 64 | 12.9 | 19.3 | 0.00 | 0.00 | 0.00 | 50 | 1018.4 |
| 20260905081553 | 25 | 103 | 11.3 | 17.7 | 0.00 | 0.00 | 0.00 | 51 | 1018.2 |
| 20260905080104 | 25 | 103 | 16.1 | 19.3 | 0.00 | 0.00 | 0.00 | 52 | 1018.1 |
| 20260905074558 | 24 | 113 | 12.9 | 20.9 | 0.00 | 0.00 | 0.00 | 53 | 1018.1 |
| 20260905073100 | 23 | 100 | 9.7 | 17.7 | 0.00 | 0.00 | 0.00 | 55 | 1018.1 |
| 20260905071556 | 23 | 121 | 8.0 | 11.3 | 0.00 | 0.00 | 0.00 | 53 | 1018.2 |
| 20260905064617 | 21 | 91 | 3.2 | 6.4 | 0.00 | 0.00 | 0.00 | 65 | 1017.7 |
| 20260905063056 | 19 | 121 | 1.6 | 4.8 | 0.00 | 0.00 | 0.00 | 69 | 1017.8 |
| 20260905061603 | 18 | 143 | 0.0 | 4.8 | 0.00 | 0.00 | 0.00 | 72 | 1018.0 |
| 20260905060108 | 17 | 103 | 3.2 | 4.8 | 0.00 | 0.00 | 0.00 | 73 | 1018.2 |
| 20260905054709 | 16 | 115 | 3.2 | 3.2 | 0.00 | 0.00 | 0.00 | 72 | 1018.4 |